sensor_id;sensor_type;location;lat;lon;timestamp;P1;durP1;ratioP1;P2;durP2;ratioP2
20531;SDS011;10424;52.102;8.084;2023-02-23T00:00:51;52.75;;;28.00;;
20531;SDS011;10424;52.102;8.084;2023-02-23T00:03:19;46.40;;;25.83;;
20531;SDS011;10424;52.102;8.084;2023-02-23T00:05:46;51.83;;;27.02;;
20531;SDS011;10424;52.102;8.084;2023-02-23T00:08:13;48.60;;;25.73;;
20531;SDS011;10424;52.102;8.084;2023-02-23T00:10:41;49.90;;;26.95;;
20531;SDS011;10424;52.102;8.084;2023-02-23T00:13:08;52.92;;;27.92;;
20531;SDS011;10424;52.102;8.084;2023-02-23T00:15:37;51.53;;;27.30;;
20531;SDS011;10424;52.102;8.084;2023-02-23T00:18:05;58.58;;;28.38;;
20531;SDS011;10424;52.102;8.084;2023-02-23T00:20:33;58.45;;;29.52;;
20531;SDS011;10424;52.102;8.084;2023-02-23T00:23:00;57.70;;;30.88;;
20531;SDS011;10424;52.102;8.084;2023-02-23T00:25:28;58.65;;;29.98;;
20531;SDS011;10424;52.102;8.084;2023-02-23T00:27:56;58.65;;;30.55;;
20531;SDS011;10424;52.102;8.084;2023-02-23T00:30:23;60.75;;;30.58;;
20531;SDS011;10424;52.102;8.084;2023-02-23T00:32:52;57.72;;;30.27;;
20531;SDS011;10424;52.102;8.084;2023-02-23T00:35:19;56.55;;;30.58;;
20531;SDS011;10424;52.102;8.084;2023-02-23T00:37:48;63.63;;;32.42;;
20531;SDS011;10424;52.102;8.084;2023-02-23T00:40:16;65.47;;;33.28;;
20531;SDS011;10424;52.102;8.084;2023-02-23T00:42:47;67.40;;;32.83;;
20531;SDS011;10424;52.102;8.084;2023-02-23T00:45:16;64.32;;;33.17;;
20531;SDS011;10424;52.102;8.084;2023-02-23T00:47:44;74.32;;;36.00;;
20531;SDS011;10424;52.102;8.084;2023-02-23T00:50:14;75.13;;;36.70;;
20531;SDS011;10424;52.102;8.084;2023-02-23T00:52:42;75.30;;;38.35;;
20531;SDS011;10424;52.102;8.084;2023-02-23T00:55:10;80.53;;;39.85;;
20531;SDS011;10424;52.102;8.084;2023-02-23T00:57:38;84.05;;;39.67;;
20531;SDS011;10424;52.102;8.084;2023-02-23T01:00:06;89.00;;;41.28;;
20531;SDS011;10424;52.102;8.084;2023-02-23T01:02:44;97.95;;;43.72;;
20531;SDS011;10424;52.102;8.084;2023-02-23T01:05:12;87.10;;;41.90;;
20531;SDS011;10424;52.102;8.084;2023-02-23T01:07:42;92.95;;;43.25;;
20531;SDS011;10424;52.102;8.084;2023-02-23T01:10:11;90.85;;;42.47;;
20531;SDS011;10424;52.102;8.084;2023-02-23T01:12:47;88.13;;;42.60;;
20531;SDS011;10424;52.102;8.084;2023-02-23T01:15:14;92.00;;;43.65;;
20531;SDS011;10424;52.102;8.084;2023-02-23T01:17:42;91.20;;;43.58;;
20531;SDS011;10424;52.102;8.084;2023-02-23T01:20:10;91.40;;;43.20;;
20531;SDS011;10424;52.102;8.084;2023-02-23T01:22:43;90.40;;;41.83;;
20531;SDS011;10424;52.102;8.084;2023-02-23T01:25:10;94.68;;;42.95;;
20531;SDS011;10424;52.102;8.084;2023-02-23T01:27:38;98.95;;;43.80;;
20531;SDS011;10424;52.102;8.084;2023-02-23T01:30:06;90.47;;;42.60;;
20531;SDS011;10424;52.102;8.084;2023-02-23T01:32:34;97.82;;;43.20;;
20531;SDS011;10424;52.102;8.084;2023-02-23T01:35:02;91.63;;;43.58;;
20531;SDS011;10424;52.102;8.084;2023-02-23T01:37:30;94.57;;;44.42;;
20531;SDS011;10424;52.102;8.084;2023-02-23T01:40:00;94.25;;;44.17;;
20531;SDS011;10424;52.102;8.084;2023-02-23T01:42:35;92.25;;;42.95;;
20531;SDS011;10424;52.102;8.084;2023-02-23T01:47:45;102.20;;;44.15;;
20531;SDS011;10424;52.102;8.084;2023-02-23T01:50:13;94.80;;;43.08;;
20531;SDS011;10424;52.102;8.084;2023-02-23T01:52:42;93.75;;;42.70;;
20531;SDS011;10424;52.102;8.084;2023-02-23T01:55:11;100.35;;;43.80;;
20531;SDS011;10424;52.102;8.084;2023-02-23T01:57:39;96.68;;;43.63;;
20531;SDS011;10424;52.102;8.084;2023-02-23T02:00:08;92.43;;;43.17;;
20531;SDS011;10424;52.102;8.084;2023-02-23T02:02:37;96.18;;;43.15;;
20531;SDS011;10424;52.102;8.084;2023-02-23T02:05:06;99.45;;;44.28;;
20531;SDS011;10424;52.102;8.084;2023-02-23T02:07:38;95.97;;;43.53;;
20531;SDS011;10424;52.102;8.084;2023-02-23T02:10:10;95.22;;;43.97;;
20531;SDS011;10424;52.102;8.084;2023-02-23T02:12:57;96.63;;;43.97;;
20531;SDS011;10424;52.102;8.084;2023-02-23T02:15:30;98.05;;;43.67;;
20531;SDS011;10424;52.102;8.084;2023-02-23T02:18:02;100.43;;;43.83;;
20531;SDS011;10424;52.102;8.084;2023-02-23T02:26:30;89.03;;;40.75;;
20531;SDS011;10424;52.102;8.084;2023-02-23T02:29:09;94.30;;;43.17;;
20531;SDS011;10424;52.102;8.084;2023-02-23T02:31:55;91.78;;;42.17;;
20531;SDS011;10424;52.102;8.084;2023-02-23T02:37:19;94.95;;;42.22;;
20531;SDS011;10424;52.102;8.084;2023-02-23T02:39:52;97.45;;;43.03;;
20531;SDS011;10424;52.102;8.084;2023-02-23T02:42:41;100.20;;;42.80;;
20531;SDS011;10424;52.102;8.084;2023-02-23T02:45:13;101.05;;;43.60;;
20531;SDS011;10424;52.102;8.084;2023-02-23T02:47:42;98.13;;;43.42;;
20531;SDS011;10424;52.102;8.084;2023-02-23T02:50:14;97.82;;;44.33;;
20531;SDS011;10424;52.102;8.084;2023-02-23T02:52:46;97.68;;;44.60;;
20531;SDS011;10424;52.102;8.084;2023-02-23T02:55:17;99.20;;;44.45;;
20531;SDS011;10424;52.102;8.084;2023-02-23T02:57:48;100.68;;;43.97;;
20531;SDS011;10424;52.102;8.084;2023-02-23T03:00:18;102.90;;;46.42;;
20531;SDS011;10424;52.102;8.084;2023-02-23T03:03:03;98.82;;;43.50;;
20531;SDS011;10424;52.102;8.084;2023-02-23T03:05:49;103.13;;;45.25;;
20531;SDS011;10424;52.102;8.084;2023-02-23T03:08:38;98.97;;;43.10;;
20531;SDS011;10424;52.102;8.084;2023-02-23T03:11:25;99.30;;;44.42;;
20531;SDS011;10424;52.102;8.084;2023-02-23T03:14:16;92.45;;;43.47;;
20531;SDS011;10424;52.102;8.084;2023-02-23T03:17:07;101.20;;;43.72;;
20531;SDS011;10424;52.102;8.084;2023-02-23T03:19:57;104.55;;;45.17;;
20531;SDS011;10424;52.102;8.084;2023-02-23T03:22:45;106.35;;;45.70;;
20531;SDS011;10424;52.102;8.084;2023-02-23T03:25:33;99.63;;;45.58;;
20531;SDS011;10424;52.102;8.084;2023-02-23T03:28:26;103.05;;;44.72;;
20531;SDS011;10424;52.102;8.084;2023-02-23T03:31:13;107.38;;;45.95;;
20531;SDS011;10424;52.102;8.084;2023-02-23T03:34:02;96.15;;;43.95;;
20531;SDS011;10424;52.102;8.084;2023-02-23T03:36:53;106.47;;;46.30;;
20531;SDS011;10424;52.102;8.084;2023-02-23T03:39:42;98.40;;;44.83;;
20531;SDS011;10424;52.102;8.084;2023-02-23T03:42:30;101.20;;;43.95;;
20531;SDS011;10424;52.102;8.084;2023-02-23T03:45:17;106.40;;;45.05;;
20531;SDS011;10424;52.102;8.084;2023-02-23T03:48:02;103.45;;;45.38;;
20531;SDS011;10424;52.102;8.084;2023-02-23T03:50:48;105.43;;;45.75;;
20531;SDS011;10424;52.102;8.084;2023-02-23T03:53:34;104.85;;;46.60;;
20531;SDS011;10424;52.102;8.084;2023-02-23T03:56:23;99.72;;;44.08;;
20531;SDS011;10424;52.102;8.084;2023-02-23T03:59:11;104.05;;;45.38;;
20531;SDS011;10424;52.102;8.084;2023-02-23T04:01:58;112.00;;;45.65;;
20531;SDS011;10424;52.102;8.084;2023-02-23T04:04:44;102.10;;;43.92;;
20531;SDS011;10424;52.102;8.084;2023-02-23T04:07:30;100.05;;;44.83;;
20531;SDS011;10424;52.102;8.084;2023-02-23T04:10:15;97.03;;;44.00;;
20531;SDS011;10424;52.102;8.084;2023-02-23T04:13:00;103.93;;;44.28;;
20531;SDS011;10424;52.102;8.084;2023-02-23T04:15:43;98.35;;;43.95;;
20531;SDS011;10424;52.102;8.084;2023-02-23T04:18:13;102.07;;;45.33;;
20531;SDS011;10424;52.102;8.084;2023-02-23T04:20:41;105.13;;;45.30;;
20531;SDS011;10424;52.102;8.084;2023-02-23T04:23:08;102.25;;;45.33;;
20531;SDS011;10424;52.102;8.084;2023-02-23T04:25:35;100.82;;;45.25;;
20531;SDS011;10424;52.102;8.084;2023-02-23T04:28:02;106.68;;;45.60;;
20531;SDS011;10424;52.102;8.084;2023-02-23T04:30:30;103.15;;;45.58;;
20531;SDS011;10424;52.102;8.084;2023-02-23T04:32:58;101.85;;;46.13;;
20531;SDS011;10424;52.102;8.084;2023-02-23T04:35:26;98.25;;;44.13;;
20531;SDS011;10424;52.102;8.084;2023-02-23T04:37:55;97.85;;;45.30;;
20531;SDS011;10424;52.102;8.084;2023-02-23T04:40:23;103.47;;;44.78;;
20531;SDS011;10424;52.102;8.084;2023-02-23T04:42:50;103.35;;;44.20;;
20531;SDS011;10424;52.102;8.084;2023-02-23T04:45:18;98.20;;;43.67;;
20531;SDS011;10424;52.102;8.084;2023-02-23T04:47:46;109.38;;;46.78;;
20531;SDS011;10424;52.102;8.084;2023-02-23T04:50:15;105.38;;;46.05;;
20531;SDS011;10424;52.102;8.084;2023-02-23T04:52:42;106.97;;;46.60;;
20531;SDS011;10424;52.102;8.084;2023-02-23T04:55:12;109.80;;;46.05;;
20531;SDS011;10424;52.102;8.084;2023-02-23T04:57:41;108.78;;;46.03;;
20531;SDS011;10424;52.102;8.084;2023-02-23T05:00:09;107.68;;;46.67;;
20531;SDS011;10424;52.102;8.084;2023-02-23T05:02:36;105.63;;;46.00;;
20531;SDS011;10424;52.102;8.084;2023-02-23T05:05:04;103.20;;;46.15;;
20531;SDS011;10424;52.102;8.084;2023-02-23T05:07:34;106.22;;;47.40;;
20531;SDS011;10424;52.102;8.084;2023-02-23T05:10:02;106.78;;;46.05;;
20531;SDS011;10424;52.102;8.084;2023-02-23T05:12:29;108.80;;;46.85;;
20531;SDS011;10424;52.102;8.084;2023-02-23T05:14:57;105.95;;;47.03;;
20531;SDS011;10424;52.102;8.084;2023-02-23T05:17:24;106.13;;;46.35;;
20531;SDS011;10424;52.102;8.084;2023-02-23T05:19:51;102.43;;;45.33;;
20531;SDS011;10424;52.102;8.084;2023-02-23T05:22:19;100.18;;;45.05;;
20531;SDS011;10424;52.102;8.084;2023-02-23T05:24:48;102.53;;;44.60;;
20531;SDS011;10424;52.102;8.084;2023-02-23T05:27:15;108.10;;;45.38;;
20531;SDS011;10424;52.102;8.084;2023-02-23T05:29:42;102.47;;;45.22;;
20531;SDS011;10424;52.102;8.084;2023-02-23T05:32:10;96.75;;;43.40;;
20531;SDS011;10424;52.102;8.084;2023-02-23T05:34:37;102.20;;;44.72;;
20531;SDS011;10424;52.102;8.084;2023-02-23T05:37:04;98.15;;;44.70;;
20531;SDS011;10424;52.102;8.084;2023-02-23T05:39:32;109.63;;;46.25;;
20531;SDS011;10424;52.102;8.084;2023-02-23T05:42:00;99.50;;;43.80;;
20531;SDS011;10424;52.102;8.084;2023-02-23T05:44:28;97.18;;;44.50;;
20531;SDS011;10424;52.102;8.084;2023-02-23T05:46:55;106.25;;;44.63;;
20531;SDS011;10424;52.102;8.084;2023-02-23T05:49:22;108.63;;;44.50;;
20531;SDS011;10424;52.102;8.084;2023-02-23T05:51:50;98.97;;;44.05;;
20531;SDS011;10424;52.102;8.084;2023-02-23T05:54:17;95.22;;;42.85;;
20531;SDS011;10424;52.102;8.084;2023-02-23T05:56:44;97.35;;;43.65;;
20531;SDS011;10424;52.102;8.084;2023-02-23T05:59:13;96.70;;;44.17;;
20531;SDS011;10424;52.102;8.084;2023-02-23T06:01:41;100.95;;;44.22;;
20531;SDS011;10424;52.102;8.084;2023-02-23T06:04:08;100.35;;;44.67;;
20531;SDS011;10424;52.102;8.084;2023-02-23T06:06:36;99.15;;;44.25;;
20531;SDS011;10424;52.102;8.084;2023-02-23T06:09:03;98.78;;;45.05;;
20531;SDS011;10424;52.102;8.084;2023-02-23T06:11:30;94.30;;;43.20;;
20531;SDS011;10424;52.102;8.084;2023-02-23T06:13:58;103.03;;;45.53;;
20531;SDS011;10424;52.102;8.084;2023-02-23T06:16:26;99.75;;;44.10;;
20531;SDS011;10424;52.102;8.084;2023-02-23T06:18:53;104.00;;;45.42;;
20531;SDS011;10424;52.102;8.084;2023-02-23T06:21:21;99.50;;;45.25;;
20531;SDS011;10424;52.102;8.084;2023-02-23T06:23:49;103.85;;;45.17;;
20531;SDS011;10424;52.102;8.084;2023-02-23T06:26:17;110.85;;;46.00;;
20531;SDS011;10424;52.102;8.084;2023-02-23T06:28:45;108.57;;;45.75;;
20531;SDS011;10424;52.102;8.084;2023-02-23T06:31:13;106.20;;;45.92;;
20531;SDS011;10424;52.102;8.084;2023-02-23T06:33:41;110.60;;;46.22;;
20531;SDS011;10424;52.102;8.084;2023-02-23T06:36:08;104.95;;;45.15;;
20531;SDS011;10424;52.102;8.084;2023-02-23T06:38:36;106.72;;;46.13;;
20531;SDS011;10424;52.102;8.084;2023-02-23T06:41:06;115.18;;;48.85;;
20531;SDS011;10424;52.102;8.084;2023-02-23T06:43:34;108.57;;;46.83;;
20531;SDS011;10424;52.102;8.084;2023-02-23T06:46:01;116.55;;;46.92;;
20531;SDS011;10424;52.102;8.084;2023-02-23T06:48:30;105.53;;;46.47;;
20531;SDS011;10424;52.102;8.084;2023-02-23T06:50:59;107.07;;;45.92;;
20531;SDS011;10424;52.102;8.084;2023-02-23T06:53:26;110.75;;;47.58;;
20531;SDS011;10424;52.102;8.084;2023-02-23T06:55:54;107.35;;;46.05;;
20531;SDS011;10424;52.102;8.084;2023-02-23T06:58:21;107.47;;;44.53;;
20531;SDS011;10424;52.102;8.084;2023-02-23T07:00:49;110.03;;;45.97;;
20531;SDS011;10424;52.102;8.084;2023-02-23T07:03:16;110.40;;;47.35;;
20531;SDS011;10424;52.102;8.084;2023-02-23T07:05:44;106.78;;;45.70;;
20531;SDS011;10424;52.102;8.084;2023-02-23T07:08:13;107.68;;;46.08;;
20531;SDS011;10424;52.102;8.084;2023-02-23T07:10:40;105.50;;;46.08;;
20531;SDS011;10424;52.102;8.084;2023-02-23T07:13:07;107.00;;;46.33;;
20531;SDS011;10424;52.102;8.084;2023-02-23T07:15:37;110.57;;;46.33;;
20531;SDS011;10424;52.102;8.084;2023-02-23T07:18:04;108.90;;;46.47;;
20531;SDS011;10424;52.102;8.084;2023-02-23T07:20:32;106.90;;;46.65;;
20531;SDS011;10424;52.102;8.084;2023-02-23T07:22:59;113.28;;;47.42;;
20531;SDS011;10424;52.102;8.084;2023-02-23T07:25:28;107.18;;;46.80;;
20531;SDS011;10424;52.102;8.084;2023-02-23T07:27:56;118.00;;;47.95;;
20531;SDS011;10424;52.102;8.084;2023-02-23T07:30:24;114.68;;;46.88;;
20531;SDS011;10424;52.102;8.084;2023-02-23T07:32:51;105.03;;;46.20;;
20531;SDS011;10424;52.102;8.084;2023-02-23T07:35:19;116.95;;;48.00;;
20531;SDS011;10424;52.102;8.084;2023-02-23T07:37:46;117.63;;;47.58;;
20531;SDS011;10424;52.102;8.084;2023-02-23T07:40:13;115.57;;;47.95;;
20531;SDS011;10424;52.102;8.084;2023-02-23T07:42:42;120.47;;;48.25;;
20531;SDS011;10424;52.102;8.084;2023-02-23T07:45:10;109.90;;;47.05;;
20531;SDS011;10424;52.102;8.084;2023-02-23T07:47:37;116.15;;;48.75;;
20531;SDS011;10424;52.102;8.084;2023-02-23T07:50:05;118.80;;;48.78;;
20531;SDS011;10424;52.102;8.084;2023-02-23T07:52:34;111.32;;;46.75;;
20531;SDS011;10424;52.102;8.084;2023-02-23T07:55:01;114.78;;;48.17;;
20531;SDS011;10424;52.102;8.084;2023-02-23T07:57:28;112.47;;;48.20;;
20531;SDS011;10424;52.102;8.084;2023-02-23T07:59:57;109.90;;;46.75;;
20531;SDS011;10424;52.102;8.084;2023-02-23T08:02:24;106.28;;;46.75;;
20531;SDS011;10424;52.102;8.084;2023-02-23T08:04:53;112.47;;;48.28;;
20531;SDS011;10424;52.102;8.084;2023-02-23T08:07:20;107.18;;;47.53;;
20531;SDS011;10424;52.102;8.084;2023-02-23T08:09:48;107.60;;;45.97;;
20531;SDS011;10424;52.102;8.084;2023-02-23T08:12:15;110.57;;;46.50;;
20531;SDS011;10424;52.102;8.084;2023-02-23T08:14:43;105.07;;;46.03;;
20531;SDS011;10424;52.102;8.084;2023-02-23T08:17:12;96.18;;;44.13;;
20531;SDS011;10424;52.102;8.084;2023-02-23T08:19:39;101.28;;;45.00;;
20531;SDS011;10424;52.102;8.084;2023-02-23T08:22:06;99.97;;;44.47;;
20531;SDS011;10424;52.102;8.084;2023-02-23T08:24:34;98.65;;;44.70;;
20531;SDS011;10424;52.102;8.084;2023-02-23T08:27:01;97.10;;;41.72;;
20531;SDS011;10424;52.102;8.084;2023-02-23T08:29:28;87.95;;;38.20;;
20531;SDS011;10424;52.102;8.084;2023-02-23T08:31:56;88.13;;;39.10;;
20531;SDS011;10424;52.102;8.084;2023-02-23T08:34:24;88.88;;;38.33;;
20531;SDS011;10424;52.102;8.084;2023-02-23T08:36:52;85.03;;;35.58;;
20531;SDS011;10424;52.102;8.084;2023-02-23T08:39:19;80.97;;;33.33;;
20531;SDS011;10424;52.102;8.084;2023-02-23T08:41:47;83.63;;;34.40;;
20531;SDS011;10424;52.102;8.084;2023-02-23T08:44:14;88.47;;;33.92;;
20531;SDS011;10424;52.102;8.084;2023-02-23T08:46:41;81.75;;;32.63;;
20531;SDS011;10424;52.102;8.084;2023-02-23T08:49:10;81.60;;;32.47;;
20531;SDS011;10424;52.102;8.084;2023-02-23T08:51:38;82.85;;;32.95;;
20531;SDS011;10424;52.102;8.084;2023-02-23T08:54:07;87.03;;;33.00;;
20531;SDS011;10424;52.102;8.084;2023-02-23T08:56:39;91.03;;;33.28;;
20531;SDS011;10424;52.102;8.084;2023-02-23T08:59:06;90.85;;;32.70;;
20531;SDS011;10424;52.102;8.084;2023-02-23T09:01:34;86.03;;;32.28;;
20531;SDS011;10424;52.102;8.084;2023-02-23T09:04:02;83.47;;;32.20;;
20531;SDS011;10424;52.102;8.084;2023-02-23T09:06:29;89.75;;;33.47;;
20531;SDS011;10424;52.102;8.084;2023-02-23T09:08:58;93.38;;;33.80;;
20531;SDS011;10424;52.102;8.084;2023-02-23T09:11:25;90.65;;;32.55;;
20531;SDS011;10424;52.102;8.084;2023-02-23T09:13:53;93.95;;;32.95;;
20531;SDS011;10424;52.102;8.084;2023-02-23T09:16:20;92.13;;;33.63;;
20531;SDS011;10424;52.102;8.084;2023-02-23T09:18:47;93.55;;;32.72;;
20531;SDS011;10424;52.102;8.084;2023-02-23T09:21:15;91.03;;;31.90;;
20531;SDS011;10424;52.102;8.084;2023-02-23T09:23:45;87.88;;;30.55;;
20531;SDS011;10424;52.102;8.084;2023-02-23T09:26:15;90.07;;;31.67;;
20531;SDS011;10424;52.102;8.084;2023-02-23T09:28:42;85.80;;;30.35;;
20531;SDS011;10424;52.102;8.084;2023-02-23T09:31:10;87.53;;;30.92;;
20531;SDS011;10424;52.102;8.084;2023-02-23T09:33:38;84.07;;;31.15;;
20531;SDS011;10424;52.102;8.084;2023-02-23T09:36:06;90.60;;;32.08;;
20531;SDS011;10424;52.102;8.084;2023-02-23T09:38:33;79.90;;;29.58;;
20531;SDS011;10424;52.102;8.084;2023-02-23T09:41:00;80.75;;;30.23;;
20531;SDS011;10424;52.102;8.084;2023-02-23T09:43:30;79.10;;;29.33;;
20531;SDS011;10424;52.102;8.084;2023-02-23T09:46:07;75.53;;;28.80;;
20531;SDS011;10424;52.102;8.084;2023-02-23T09:48:38;79.10;;;30.40;;
20531;SDS011;10424;52.102;8.084;2023-02-23T09:51:07;78.63;;;30.20;;
20531;SDS011;10424;52.102;8.084;2023-02-23T09:53:36;81.13;;;30.63;;
20531;SDS011;10424;52.102;8.084;2023-02-23T09:56:05;79.88;;;32.30;;
20531;SDS011;10424;52.102;8.084;2023-02-23T09:58:36;82.75;;;31.90;;
20531;SDS011;10424;52.102;8.084;2023-02-23T10:01:22;88.15;;;32.30;;
20531;SDS011;10424;52.102;8.084;2023-02-23T10:03:52;81.70;;;31.77;;
20531;SDS011;10424;52.102;8.084;2023-02-23T10:06:21;85.32;;;31.52;;
20531;SDS011;10424;52.102;8.084;2023-02-23T10:08:51;80.00;;;31.48;;
20531;SDS011;10424;52.102;8.084;2023-02-23T10:11:26;88.55;;;33.20;;
20531;SDS011;10424;52.102;8.084;2023-02-23T10:14:00;82.10;;;32.70;;
20531;SDS011;10424;52.102;8.084;2023-02-23T10:16:29;84.22;;;32.58;;
20531;SDS011;10424;52.102;8.084;2023-02-23T10:18:57;85.25;;;33.35;;
20531;SDS011;10424;52.102;8.084;2023-02-23T10:21:30;85.85;;;33.38;;
20531;SDS011;10424;52.102;8.084;2023-02-23T10:24:00;81.30;;;34.05;;
20531;SDS011;10424;52.102;8.084;2023-02-23T10:26:31;80.07;;;32.03;;
20531;SDS011;10424;52.102;8.084;2023-02-23T10:29:02;83.65;;;33.40;;
20531;SDS011;10424;52.102;8.084;2023-02-23T10:31:32;83.90;;;34.17;;
20531;SDS011;10424;52.102;8.084;2023-02-23T10:34:01;88.40;;;34.25;;
20531;SDS011;10424;52.102;8.084;2023-02-23T10:36:34;88.68;;;33.60;;
20531;SDS011;10424;52.102;8.084;2023-02-23T10:39:04;85.68;;;32.85;;
20531;SDS011;10424;52.102;8.084;2023-02-23T10:41:32;79.82;;;31.85;;
20531;SDS011;10424;52.102;8.084;2023-02-23T10:44:01;77.93;;;32.00;;
20531;SDS011;10424;52.102;8.084;2023-02-23T10:46:34;72.43;;;30.48;;
20531;SDS011;10424;52.102;8.084;2023-02-23T10:49:02;71.57;;;30.83;;
20531;SDS011;10424;52.102;8.084;2023-02-23T10:51:31;72.45;;;29.17;;
20531;SDS011;10424;52.102;8.084;2023-02-23T10:54:21;72.90;;;29.70;;
20531;SDS011;10424;52.102;8.084;2023-02-23T10:56:50;72.65;;;29.27;;
20531;SDS011;10424;52.102;8.084;2023-02-23T10:59:19;76.78;;;30.73;;
20531;SDS011;10424;52.102;8.084;2023-02-23T11:01:46;79.78;;;31.10;;
20531;SDS011;10424;52.102;8.084;2023-02-23T11:04:15;72.63;;;30.02;;
20531;SDS011;10424;52.102;8.084;2023-02-23T11:06:44;78.28;;;30.45;;
20531;SDS011;10424;52.102;8.084;2023-02-23T11:09:17;73.35;;;31.13;;
20531;SDS011;10424;52.102;8.084;2023-02-23T11:11:54;72.97;;;30.15;;
20531;SDS011;10424;52.102;8.084;2023-02-23T11:14:24;73.30;;;28.73;;
20531;SDS011;10424;52.102;8.084;2023-02-23T11:16:52;76.45;;;30.13;;
20531;SDS011;10424;52.102;8.084;2023-02-23T11:19:20;74.13;;;29.75;;
20531;SDS011;10424;52.102;8.084;2023-02-23T11:21:50;76.82;;;30.70;;
20531;SDS011;10424;52.102;8.084;2023-02-23T11:24:19;66.65;;;27.98;;
20531;SDS011;10424;52.102;8.084;2023-02-23T11:26:48;73.47;;;28.95;;
20531;SDS011;10424;52.102;8.084;2023-02-23T11:29:19;69.93;;;28.00;;
20531;SDS011;10424;52.102;8.084;2023-02-23T11:31:50;63.65;;;26.27;;
20531;SDS011;10424;52.102;8.084;2023-02-23T11:34:20;66.90;;;25.75;;
20531;SDS011;10424;52.102;8.084;2023-02-23T11:36:56;67.30;;;27.25;;
20531;SDS011;10424;52.102;8.084;2023-02-23T11:39:24;65.90;;;26.85;;
20531;SDS011;10424;52.102;8.084;2023-02-23T11:44:37;63.17;;;24.98;;
20531;SDS011;10424;52.102;8.084;2023-02-23T11:47:06;72.22;;;26.33;;
20531;SDS011;10424;52.102;8.084;2023-02-23T11:49:39;59.50;;;23.70;;
20531;SDS011;10424;52.102;8.084;2023-02-23T11:52:11;67.20;;;23.58;;
20531;SDS011;10424;52.102;8.084;2023-02-23T11:54:40;59.15;;;23.83;;
20531;SDS011;10424;52.102;8.084;2023-02-23T11:57:09;61.95;;;24.42;;
20531;SDS011;10424;52.102;8.084;2023-02-23T11:59:46;64.85;;;24.77;;
20531;SDS011;10424;52.102;8.084;2023-02-23T12:02:20;63.88;;;24.10;;
20531;SDS011;10424;52.102;8.084;2023-02-23T12:04:47;58.30;;;21.40;;
20531;SDS011;10424;52.102;8.084;2023-02-23T12:07:28;57.97;;;21.92;;
20531;SDS011;10424;52.102;8.084;2023-02-23T12:10:10;53.38;;;20.63;;
20531;SDS011;10424;52.102;8.084;2023-02-23T12:12:43;53.88;;;20.20;;
20531;SDS011;10424;52.102;8.084;2023-02-23T12:15:13;54.30;;;19.88;;
20531;SDS011;10424;52.102;8.084;2023-02-23T12:17:44;55.35;;;20.85;;
20531;SDS011;10424;52.102;8.084;2023-02-23T12:20:13;51.90;;;19.85;;
20531;SDS011;10424;52.102;8.084;2023-02-23T12:22:43;54.25;;;20.83;;
20531;SDS011;10424;52.102;8.084;2023-02-23T12:25:15;57.85;;;21.52;;
20531;SDS011;10424;52.102;8.084;2023-02-23T12:27:45;59.35;;;21.05;;
20531;SDS011;10424;52.102;8.084;2023-02-23T12:30:16;49.90;;;19.00;;
20531;SDS011;10424;52.102;8.084;2023-02-23T12:32:47;53.20;;;19.52;;
20531;SDS011;10424;52.102;8.084;2023-02-23T12:35:18;53.53;;;20.95;;
20531;SDS011;10424;52.102;8.084;2023-02-23T12:37:48;50.67;;;20.02;;
20531;SDS011;10424;52.102;8.084;2023-02-23T12:40:18;56.83;;;20.83;;
20531;SDS011;10424;52.102;8.084;2023-02-23T12:42:52;47.60;;;18.63;;
20531;SDS011;10424;52.102;8.084;2023-02-23T12:45:22;46.03;;;17.73;;
20531;SDS011;10424;52.102;8.084;2023-02-23T12:47:54;45.55;;;17.15;;
20531;SDS011;10424;52.102;8.084;2023-02-23T12:50:24;42.33;;;16.27;;
20531;SDS011;10424;52.102;8.084;2023-02-23T12:52:53;37.75;;;15.80;;
20531;SDS011;10424;52.102;8.084;2023-02-23T12:55:26;46.03;;;16.80;;
20531;SDS011;10424;52.102;8.084;2023-02-23T12:57:56;44.25;;;17.77;;
20531;SDS011;10424;52.102;8.084;2023-02-23T13:00:29;44.10;;;17.42;;
20531;SDS011;10424;52.102;8.084;2023-02-23T13:03:06;44.60;;;16.92;;
20531;SDS011;10424;52.102;8.084;2023-02-23T13:05:37;44.22;;;16.38;;
20531;SDS011;10424;52.102;8.084;2023-02-23T13:08:08;42.50;;;16.55;;
20531;SDS011;10424;52.102;8.084;2023-02-23T13:10:40;44.28;;;16.42;;
20531;SDS011;10424;52.102;8.084;2023-02-23T13:13:12;42.28;;;15.40;;
20531;SDS011;10424;52.102;8.084;2023-02-23T13:15:45;38.58;;;14.98;;
20531;SDS011;10424;52.102;8.084;2023-02-23T13:18:17;40.40;;;15.95;;
20531;SDS011;10424;52.102;8.084;2023-02-23T13:20:49;38.80;;;15.20;;
20531;SDS011;10424;52.102;8.084;2023-02-23T13:23:19;35.30;;;14.68;;
20531;SDS011;10424;52.102;8.084;2023-02-23T13:25:49;33.45;;;14.00;;
20531;SDS011;10424;52.102;8.084;2023-02-23T13:28:20;33.47;;;14.15;;
20531;SDS011;10424;52.102;8.084;2023-02-23T13:30:53;32.13;;;13.20;;
20531;SDS011;10424;52.102;8.084;2023-02-23T13:33:26;35.00;;;13.88;;
20531;SDS011;10424;52.102;8.084;2023-02-23T13:35:55;31.13;;;12.73;;
20531;SDS011;10424;52.102;8.084;2023-02-23T13:38:26;29.45;;;12.70;;
20531;SDS011;10424;52.102;8.084;2023-02-23T13:40:58;30.50;;;13.27;;
20531;SDS011;10424;52.102;8.084;2023-02-23T13:43:30;33.38;;;13.23;;
20531;SDS011;10424;52.102;8.084;2023-02-23T13:46:11;32.83;;;12.88;;
20531;SDS011;10424;52.102;8.084;2023-02-23T13:48:45;32.67;;;12.82;;
20531;SDS011;10424;52.102;8.084;2023-02-23T13:51:17;32.10;;;13.18;;
20531;SDS011;10424;52.102;8.084;2023-02-23T13:53:47;31.70;;;12.75;;
20531;SDS011;10424;52.102;8.084;2023-02-23T13:56:25;32.03;;;12.68;;
20531;SDS011;10424;52.102;8.084;2023-02-23T13:58:54;29.95;;;12.13;;
20531;SDS011;10424;52.102;8.084;2023-02-23T14:01:25;33.95;;;13.10;;
20531;SDS011;10424;52.102;8.084;2023-02-23T14:03:55;29.70;;;12.10;;
20531;SDS011;10424;52.102;8.084;2023-02-23T14:06:23;29.85;;;11.95;;
20531;SDS011;10424;52.102;8.084;2023-02-23T14:08:53;30.23;;;12.00;;
20531;SDS011;10424;52.102;8.084;2023-02-23T14:14:10;24.73;;;9.90;;
20531;SDS011;10424;52.102;8.084;2023-02-23T14:16:38;26.60;;;11.15;;
20531;SDS011;10424;52.102;8.084;2023-02-23T14:19:08;26.33;;;10.10;;
20531;SDS011;10424;52.102;8.084;2023-02-23T14:21:40;23.48;;;9.52;;
20531;SDS011;10424;52.102;8.084;2023-02-23T14:24:18;25.15;;;9.25;;
20531;SDS011;10424;52.102;8.084;2023-02-23T14:29:38;25.88;;;10.15;;
20531;SDS011;10424;52.102;8.084;2023-02-23T14:34:53;27.65;;;9.60;;
20531;SDS011;10424;52.102;8.084;2023-02-23T14:37:25;24.48;;;9.75;;
20531;SDS011;10424;52.102;8.084;2023-02-23T14:39:55;28.50;;;10.23;;
20531;SDS011;10424;52.102;8.084;2023-02-23T14:42:26;28.90;;;10.77;;
20531;SDS011;10424;52.102;8.084;2023-02-23T14:44:55;28.60;;;11.35;;
20531;SDS011;10424;52.102;8.084;2023-02-23T14:47:24;31.23;;;10.93;;
20531;SDS011;10424;52.102;8.084;2023-02-23T14:49:55;32.72;;;12.15;;
20531;SDS011;10424;52.102;8.084;2023-02-23T14:52:24;36.60;;;12.75;;
20531;SDS011;10424;52.102;8.084;2023-02-23T14:55:12;35.00;;;12.80;;
20531;SDS011;10424;52.102;8.084;2023-02-23T14:57:40;35.08;;;12.80;;
20531;SDS011;10424;52.102;8.084;2023-02-23T15:00:11;33.88;;;12.70;;
20531;SDS011;10424;52.102;8.084;2023-02-23T15:02:51;36.13;;;12.88;;